Radley, Kansas
Current Conditions -  °F | °C
As of 10:15 PM on Thursday 27 Nov 2014 (Local Time) from KPTS Reporting Station
Clear Clear  
Wind Chill: 27°   Ceiling: Unl
Heat Index: 33°   Visibility: 10mi
Dew Point: 26°   Wind: 7mph
Humidity: 74%   Direction: 170°S
Pressure: 30.29"   Gusts: NA
Location:  37.4268°N, 94.7004°W
Report Text: KPTS 280415Z AUTO 17006KT 10SM CLR 01/M04 A3029 RMK AO2 T00061036
Loading
Personal Weather Stations






























Interactive Weather Map New forecast layout! Learn more

10-Day Weather Forecast

Advertisements
Track Severe Weather on mobile